Time;durP1;ratioP1;P1;durP2;ratioP2;P2;SDS_P1;SDS_P2;PMS_P1;PMS_P2;Temp;Humidity;BMP_temperature;BMP_pressure;BME280_temperature;BME280_humidity;BME280_pressure;Samples;Min_cycle;Max_cycle;Signal;HPM_P1;HPM_P2
2022/11/20 00:00:24;;;;;;;7.43;4.82;;;8.70;99.90;;;;;;4999637;28;20042;-79
2022/11/20 00:02:51;;;;;;;8.00;5.00;;;8.70;99.90;;;;;;5002978;28;20540;-79
2022/11/20 00:05:19;;;;;;;8.77;4.72;;;8.60;99.90;;;;;;5001153;28;20085;-80
2022/11/20 00:07:48;;;;;;;7.20;4.90;;;8.60;99.90;;;;;;5002442;28;20133;-78
2022/11/20 00:10:16;;;;;;;6.65;4.43;;;8.60;99.90;;;;;;5001940;28;20171;-80
2022/11/20 00:12:44;;;;;;;6.30;4.90;;;8.50;99.90;;;;;;5001963;28;20054;-78
2022/11/20 00:15:11;;;;;;;7.85;5.40;;;8.50;99.90;;;;;;5002759;28;20096;-82
2022/11/20 00:17:39;;;;;;;7.90;5.55;;;8.60;99.90;;;;;;5002107;28;20113;-81
2022/11/20 00:20:07;;;;;;;8.68;6.32;;;8.60;99.90;;;;;;5001510;28;20568;-80
2022/11/20 00:22:34;;;;;;;8.07;6.43;;;8.60;99.90;;;;;;5003339;28;20073;-81
2022/11/20 00:25:03;;;;;;;8.57;6.50;;;8.50;99.90;;;;;;5002025;28;20049;-79
2022/11/20 00:27:30;;;;;;;8.13;6.28;;;8.60;99.90;;;;;;5003163;28;20046;-81
2022/11/20 00:29:58;;;;;;;8.57;6.82;;;8.60;99.90;;;;;;5002314;28;20045;-82
2022/11/20 00:32:25;;;;;;;8.35;6.78;;;8.60;99.90;;;;;;5001482;28;20042;-82
2022/11/20 00:34:52;;;;;;;8.20;6.78;;;8.60;99.90;;;;;;5002158;28;20065;-80
2022/11/20 00:37:19;;;;;;;9.40;7.80;;;8.50;99.90;;;;;;5002547;28;20046;-81
2022/11/20 00:39:47;;;;;;;9.05;7.40;;;8.50;99.90;;;;;;5000936;28;20526;-81
2022/11/20 00:42:15;;;;;;;9.45;7.35;;;8.50;99.90;;;;;;5002256;28;20065;-79
2022/11/20 00:44:43;;;;;;;9.05;7.60;;;8.50;99.90;;;;;;5001231;28;20081;-81
2022/11/20 00:47:11;;;;;;;11.55;8.90;;;8.40;99.90;;;;;;5001440;28;20105;-81
2022/11/20 00:49:38;;;;;;;14.80;10.15;;;8.40;99.90;;;;;;5002342;28;20065;-81
2022/11/20 00:52:05;;;;;;;10.93;9.32;;;8.40;99.90;;;;;;5002627;28;20120;-82
2022/11/20 00:54:32;;;;;;;11.38;9.05;;;8.50;99.90;;;;;;5003100;28;20042;-81
2022/11/20 00:57:00;;;;;;;10.65;8.73;;;8.50;99.90;;;;;;5001321;28;20101;-82
2022/11/20 00:59:28;;;;;;;9.43;7.88;;;8.50;99.90;;;;;;5000420;28;20042;-82
2022/11/20 01:01:56;;;;;;;11.93;9.00;;;8.50;99.90;;;;;;5002010;28;20042;-80
2022/11/20 01:04:23;;;;;;;9.00;6.82;;;8.50;99.90;;;;;;5001629;28;20505;-82
2022/11/20 01:06:50;;;;;;;9.27;7.28;;;8.50;99.90;;;;;;5001967;28;20397;-80
2022/11/20 01:09:18;;;;;;;9.25;7.32;;;8.50;99.90;;;;;;5002361;28;20097;-82
2022/11/20 01:11:45;;;;;;;10.93;7.43;;;8.50;99.90;;;;;;5000366;28;20054;-82
2022/11/20 01:14:15;;;;;;;9.43;7.68;;;8.70;99.90;;;;;;5001366;28;20042;-81
2022/11/20 01:16:46;;;;;;;8.82;7.47;;;8.70;99.90;;;;;;5000073;28;20038;-80
2022/11/20 01:19:15;;;;;;;8.48;7.20;;;8.70;99.90;;;;;;5000871;28;20877;-80
2022/11/20 01:21:45;;;;;;;10.48;6.68;;;8.80;99.90;;;;;;5001716;28;20076;-81
2022/11/20 01:24:14;;;;;;;8.23;6.97;;;8.70;99.90;;;;;;5001438;28;20042;-82
2022/11/20 01:26:43;;;;;;;9.10;7.15;;;8.70;99.90;;;;;;4999626;28;20507;-82
2022/11/20 01:29:14;;;;;;;7.28;6.03;;;8.70;99.90;;;;;;4982634;28;20113;-81
2022/11/20 01:31:43;;;;;;;8.10;6.05;;;8.60;99.90;;;;;;5000338;28;20091;-81
2022/11/20 01:34:12;;;;;;;7.72;6.32;;;8.50;99.90;;;;;;4999886;28;20101;-81
2022/11/20 01:36:40;;;;;;;7.65;5.85;;;8.50;99.90;;;;;;5001151;28;20065;-80
2022/11/20 01:39:13;;;;;;;7.90;6.40;;;8.40;99.90;;;;;;4983099;28;20041;-81
2022/11/20 01:44:58;;;;;;;9.05;7.22;;;8.50;99.90;;;;;;5000956;28;20084;-81
2022/11/20 01:47:37;;;;;;;9.30;7.03;;;8.50;99.90;;;;;;4999055;28;20066;-80
2022/11/20 01:50:11;;;;;;;10.82;8.10;;;8.50;99.90;;;;;;5000541;28;20054;-81
2022/11/20 01:52:43;;;;;;;9.65;7.47;;;8.50;99.90;;;;;;5000696;28;20080;-81
2022/11/20 01:55:15;;;;;;;8.35;6.80;;;8.60;99.90;;;;;;5001130;28;20042;-81
2022/11/20 01:57:45;;;;;;;7.47;5.97;;;8.60;99.90;;;;;;4998140;28;20493;-80
2022/11/20 02:00:16;;;;;;;7.25;5.65;;;8.60;99.90;;;;;;4999627;28;20112;-82
2022/11/20 02:02:49;;;;;;;8.18;6.07;;;8.70;99.90;;;;;;4999907;28;20050;-80
2022/11/20 02:05:24;;;;;;;7.63;5.97;;;8.70;99.90;;;;;;5000991;28;20100;-81
2022/11/20 02:07:53;;;;;;;8.60;6.10;;;8.70;99.90;;;;;;4999349;28;20034;-80
2022/11/20 02:10:21;;;;;;;7.85;5.60;;;8.80;99.90;;;;;;5001151;28;20050;-79
2022/11/20 02:15:34;;;;;;;7.97;6.40;;;8.90;99.90;;;;;;5010933;28;20495;-80
2022/11/20 02:18:03;;;;;;;9.63;6.72;;;8.90;99.90;;;;;;5004022;28;20058;-81
2022/11/20 02:20:30;;;;;;;7.35;5.22;;;8.90;99.90;;;;;;5000826;28;20053;-80
2022/11/20 02:23:02;;;;;;;6.75;5.05;;;9.00;99.90;;;;;;5003032;28;20070;-82
2022/11/20 02:25:33;;;;;;;5.70;4.32;;;9.00;99.90;;;;;;5000352;28;20050;-81
2022/11/20 02:28:00;;;;;;;7.13;5.32;;;8.90;99.90;;;;;;4998517;28;20117;-81
2022/11/20 02:30:27;;;;;;;9.70;5.97;;;8.90;99.90;;;;;;5000429;28;20132;-81
2022/11/20 02:32:55;;;;;;;7.57;5.95;;;9.00;99.90;;;;;;4998876;28;20559;-79
2022/11/20 02:35:44;;;;;;;8.52;6.30;;;9.00;99.90;;;;;;5000581;28;20061;-81
2022/11/20 02:38:11;;;;;;;7.40;5.35;;;9.10;99.90;;;;;;4998431;28;20042;-81
2022/11/20 02:40:40;;;;;;;7.57;5.32;;;9.10;99.90;;;;;;4999885;28;20325;-80
2022/11/20 02:43:08;;;;;;;7.13;5.45;;;9.10;99.90;;;;;;4999154;28;20042;-81
2022/11/20 02:45:35;;;;;;;7.00;4.35;;;9.00;99.90;;;;;;4999046;28;20034;-81
2022/11/20 02:48:02;;;;;;;8.88;4.93;;;8.90;99.90;;;;;;4999502;28;20074;-80
2022/11/20 02:50:30;;;;;;;6.43;4.35;;;8.90;99.90;;;;;;4999231;28;20128;-79
2022/11/20 02:52:57;;;;;;;4.82;3.65;;;8.90;99.90;;;;;;4999048;28;20458;-81
2022/11/20 02:55:24;;;;;;;5.53;3.92;;;8.90;99.90;;;;;;4998887;28;20382;-78
2022/11/20 02:57:53;;;;;;;6.05;4.25;;;8.90;99.90;;;;;;4997671;28;20044;-79
2022/11/20 03:00:20;;;;;;;3.80;2.60;;;8.90;99.90;;;;;;4998892;28;20117;-80
2022/11/20 03:02:48;;;;;;;7.55;3.22;;;8.90;99.90;;;;;;4997449;28;20046;-80
2022/11/20 03:05:15;;;;;;;4.22;2.60;;;8.80;99.90;;;;;;4996010;28;20092;-80
2022/11/20 03:07:44;;;;;;;4.47;2.00;;;8.70;99.90;;;;;;4997630;28;20039;-82
2022/11/20 03:10:11;;;;;;;5.18;2.88;;;8.70;99.90;;;;;;4998419;28;20494;-81
2022/11/20 03:12:38;;;;;;;0.88;0.60;;;8.60;99.90;;;;;;4999339;28;20948;-81
2022/11/20 03:15:08;;;;;;;2.75;1.05;;;8.70;99.90;;;;;;5009057;28;20057;-82
2022/11/20 03:17:35;;;;;;;2.05;0.88;;;8.40;99.90;;;;;;5018269;28;20058;-79
2022/11/20 03:20:04;;;;;;;1.98;1.00;;;8.40;99.90;;;;;;5016170;28;20033;-81
2022/11/20 03:22:31;;;;;;;3.45;1.50;;;8.40;99.90;;;;;;4994262;28;20875;-80
2022/11/20 03:24:58;;;;;;;2.30;0.85;;;8.40;99.90;;;;;;4998512;28;20046;-81
2022/11/20 03:27:26;;;;;;;3.92;1.55;;;8.40;99.90;;;;;;4999711;28;20042;-80
2022/11/20 03:29:53;;;;;;;3.13;1.20;;;8.40;99.90;;;;;;4999770;28;20042;-79
2022/11/20 03:32:22;;;;;;;3.70;1.10;;;8.30;99.90;;;;;;5006982;28;20050;-80
2022/11/20 03:34:49;;;;;;;2.42;1.02;;;8.40;99.90;;;;;;5000765;28;20517;-81
2022/11/20 03:37:16;;;;;;;2.20;1.00;;;8.30;99.90;;;;;;5003117;28;20124;-78
2022/11/20 03:39:44;;;;;;;3.90;1.00;;;8.30;99.90;;;;;;5000764;28;20096;-79
2022/11/20 03:42:44;;;;;;;3.95;1.02;;;8.30;99.90;;;;;;5003322;28;20066;-81
2022/11/20 03:44:58;;;;;;;2.90;0.90;;;8.40;99.90;;;;;;5001993;28;20080;-81
2022/11/20 03:47:27;;;;;;;2.92;0.90;;;8.30;99.90;;;;;;5001319;28;20049;-80
2022/11/20 03:49:54;;;;;;;2.83;0.80;;;8.30;99.90;;;;;;5002143;28;20038;-81
2022/11/20 03:52:22;;;;;;;3.05;1.00;;;8.20;99.90;;;;;;5002387;28;20057;-81
2022/11/20 03:54:49;;;;;;;1.50;0.63;;;8.20;99.90;;;;;;5003704;28;20072;-80
2022/11/20 03:57:16;;;;;;;1.63;0.70;;;8.00;99.90;;;;;;5002049;28;20035;-81
2022/11/20 03:59:44;;;;;;;2.67;1.00;;;8.10;99.90;;;;;;5001443;28;20042;-79
2022/11/20 04:02:11;;;;;;;3.22;0.85;;;8.10;99.90;;;;;;5002307;28;20100;-81
2022/11/20 04:04:40;;;;;;;3.65;0.90;;;8.00;99.90;;;;;;5003359;28;20043;-81
2022/11/20 04:07:07;;;;;;;3.63;1.27;;;7.90;99.90;;;;;;5001239;28;20038;-80
2022/11/20 04:09:34;;;;;;;3.78;1.30;;;8.00;99.90;;;;;;4983761;28;20116;-79
2022/11/20 04:12:03;;;;;;;2.55;1.00;;;8.00;99.90;;;;;;5001317;28;20037;-81
2022/11/20 04:14:30;;;;;;;2.28;1.10;;;8.00;99.90;;;;;;5002293;28;20039;-79
2022/11/20 04:16:57;;;;;;;3.30;1.50;;;8.10;99.90;;;;;;5001108;28;20061;-81
2022/11/20 04:19:25;;;;;;;3.85;1.60;;;8.00;99.90;;;;;;5002962;28;20131;-79
2022/11/20 04:21:54;;;;;;;2.25;0.82;;;8.10;99.90;;;;;;5001713;28;20041;-81
2022/11/20 04:24:21;;;;;;;2.50;0.98;;;8.10;99.90;;;;;;5003263;28;20046;-81
2022/11/20 04:26:48;;;;;;;4.15;1.17;;;8.00;99.90;;;;;;5002380;28;20478;-81
2022/11/20 04:29:16;;;;;;;2.58;1.20;;;8.00;99.90;;;;;;5001149;28;20108;-80
2022/11/20 04:31:43;;;;;;;1.80;0.80;;;8.10;99.90;;;;;;5002003;28;20049;-79
2022/11/20 04:34:13;;;;;;;2.10;1.00;;;8.10;99.90;;;;;;5002529;28;20042;-80
2022/11/20 04:36:40;;;;;;;1.52;1.00;;;8.00;99.90;;;;;;5001176;28;20037;-79
2022/11/20 04:39:14;;;;;;;1.92;0.73;;;7.90;99.90;;;;;;5001769;28;20516;-81
2022/11/20 04:41:41;;;;;;;1.52;0.90;;;7.70;99.90;;;;;;5001586;28;20057;-80
2022/11/20 04:44:08;;;;;;;2.33;1.27;;;7.80;99.90;;;;;;5002544;28;20132;-79
2022/11/20 04:46:38;;;;;;;2.97;1.30;;;7.80;99.90;;;;;;5005531;28;20046;-81
2022/11/20 04:49:06;;;;;;;2.65;1.25;;;7.90;99.90;;;;;;5011234;28;20074;-80
2022/11/20 04:51:33;;;;;;;5.75;2.40;;;7.90;99.90;;;;;;5006297;28;20393;-81
2022/11/20 04:54:01;;;;;;;5.07;2.53;;;7.80;99.90;;;;;;5003884;28;20129;-80
2022/11/20 05:20:01;;;;;;;3.50;1.80;;;7.80;99.90;;;;;;4925003;28;20042;-77
2022/11/20 05:22:41;;;;;;;;;;;;;;;;;;;;;
2022/11/20 05:25:15;;;;;;;4.45;2.20;;;7.60;99.90;;;;;;4967799;28;20156;-76
2022/11/20 05:31:37;;;;;;;3.60;1.77;;;7.60;99.90;;;;;;5025670;28;20038;-76
2022/11/20 05:34:37;;;;;;;3.00;1.70;;;7.60;99.90;;;;;;4991586;28;20054;-78
2022/11/20 05:37:24;;;;;;;4.93;2.40;;;7.70;99.90;;;;;;5006612;28;20050;-74
2022/11/20 05:40:13;;;;;;;4.88;2.90;;;7.70;99.90;;;;;;5003985;28;20046;-74
2022/11/20 05:42:54;;;;;;;2.88;1.65;;;7.70;99.90;;;;;;4988977;28;20073;-74
2022/11/20 05:45:38;;;;;;;;;;;;;;;;;;;;;
2022/11/20 05:49:00;;;;;;;;;;;;;;;;;;;;;
2022/11/20 05:55:18;;;;;;;3.08;1.80;;;7.50;99.90;;;;;;4998094;28;20050;-78
2022/11/20 06:01:21;;;;;;;;;;;7.60;99.90;;;;;;4981796;28;20049;-75
2022/11/20 06:21:45;;;;;;;3.05;1.90;;;7.60;99.90;;;;;;5190960;23;19922;-75
2022/11/20 06:43:25;;;;;;;;;;;;;;;;;;;;;
2022/11/20 14:31:40;;;;;;;17.13;12.20;;;7.60;99.90;;;;;;5999668;23;21059;-83
2022/11/20 15:09:47;;;;;;;21.98;12.95;;;7.40;99.90;;;;;;6254058;23;20070;-75
2022/11/20 15:12:18;;;;;;;19.58;13.00;;;7.40;99.90;;;;;;6227536;23;20013;-77
2022/11/20 15:14:46;;;;;;;16.63;10.55;;;7.40;99.90;;;;;;6225300;23;20020;-78
2022/11/20 15:17:16;;;;;;;17.20;10.52;;;7.50;99.90;;;;;;6225572;23;20073;-75
2022/11/20 15:19:49;;;;;;;14.85;9.88;;;7.50;99.90;;;;;;6225115;23;20065;-76
2022/11/20 15:22:25;;;;;;;20.92;13.88;;;7.50;99.90;;;;;;6224959;23;20015;-76
2022/11/20 15:24:55;;;;;;;24.70;17.15;;;7.50;99.90;;;;;;6226047;23;20015;-75
2022/11/20 15:27:26;;;;;;;26.63;17.63;;;7.50;99.90;;;;;;6240075;22;20020;-75
2022/11/20 15:29:57;;;;;;;27.95;18.10;;;7.50;99.90;;;;;;6253753;22;20010;-76
2022/11/20 15:32:27;;;;;;;27.73;19.73;;;7.50;99.90;;;;;;6241368;23;20072;-77
2022/11/20 15:34:59;;;;;;;32.90;21.45;;;7.40;99.90;;;;;;6232377;23;20055;-74
2022/11/20 15:37:39;;;;;;;33.17;23.75;;;7.40;99.90;;;;;;6263155;22;20067;-78
2022/11/20 15:40:09;;;;;;;28.75;20.00;;;7.40;99.90;;;;;;6228397;23;20344;-77
2022/11/20 15:43:16;;;;;;;24.63;17.45;;;7.40;99.90;;;;;;6225956;23;20019;-77
2022/11/20 15:45:55;;;;;;;33.13;25.20;;;7.40;99.90;;;;;;6218840;23;20020;-76
2022/11/20 15:48:35;;;;;;;40.22;28.23;;;7.30;99.90;;;;;;6217021;23;20016;-76
2022/11/20 15:51:17;;;;;;;33.17;24.67;;;7.30;99.90;;;;;;6219745;23;20020;-77
2022/11/20 15:53:50;;;;;;;67.30;42.78;;;7.30;99.90;;;;;;6226287;23;20024;-76
2022/11/20 15:56:33;;;;;;;131.23;85.30;;;7.30;99.90;;;;;;6242047;23;20016;-76
2022/11/20 15:59:12;;;;;;;92.63;61.03;;;7.30;99.90;;;;;;6279033;23;20000;-77
2022/11/20 16:01:41;;;;;;;78.90;49.33;;;7.30;99.90;;;;;;6241511;23;20017;-76
2022/11/20 16:04:15;;;;;;;64.45;40.30;;;7.20;99.90;;;;;;6240531;22;20055;-78
2022/11/20 16:24:18;;;;;;;65.82;50.75;;;7.30;99.90;;;;;;6090255;23;20024;-76
2022/11/20 16:34:31;;;;;;;50.00;35.45;;;7.30;99.90;;;;;;6268003;22;20027;-78
2022/11/20 16:41:48;;;;;;;;;;;;;;;;;;;;;
2022/11/20 16:45:46;;;;;;;;;;;;;;;;;;;;;
2022/11/20 16:48:31;;;;;;;87.35;54.13;;;7.40;99.90;;;;;;6100647;23;20042;-76
2022/11/20 16:51:41;;;;;;;109.07;64.05;;;7.30;99.90;;;;;;6284437;22;20475;-77
2022/11/20 16:54:41;;;;;;;141.63;81.82;;;7.40;99.90;;;;;;6273787;22;20685;-76
2022/11/20 16:57:44;;;;;;;;;;;;;;;;;;;;;
2022/11/20 17:00:26;;;;;;;121.30;76.75;;;7.30;99.90;;;;;;6250772;22;20019;-76
2022/11/20 17:03:09;;;;;;;101.60;63.58;;;7.30;99.90;;;;;;6256484;22;20016;-77
2022/11/20 17:05:40;;;;;;;94.88;61.85;;;7.20;99.90;;;;;;6301524;22;20015;-78
2022/11/20 17:08:36;;;;;;;80.03;51.13;;;7.20;99.90;;;;;;6246361;22;20482;-76
2022/11/20 17:11:41;;;;;;;90.13;59.40;;;7.20;99.90;;;;;;6102453;23;20407;-77
2022/11/20 17:28:51;;;;;;;;;;;;;;;;;;;;;
2022/11/20 17:32:38;;;;;;;88.83;60.40;;;7.20;99.90;;;;;;6178265;23;20024;-75
2022/11/20 17:39:09;;;;;;;92.32;60.47;;;7.20;99.90;;;;;;6189395;23;20017;-76
2022/11/20 17:42:25;;;;;;;79.00;55.15;;;7.20;99.90;;;;;;6247791;22;20016;-77
2022/11/20 17:44:40;;;;;;;76.13;50.90;;;7.20;99.90;;;;;;6249222;22;20023;-77
2022/11/20 17:47:20;;;;;;;80.93;53.78;;;7.20;99.90;;;;;;6305773;22;20012;-77
2022/11/20 17:50:05;;;;;;;79.25;52.33;;;7.20;99.90;;;;;;6305774;22;20004;-76
2022/11/20 17:52:39;;;;;;;78.47;51.63;;;7.10;99.90;;;;;;6255046;22;20083;-78
2022/11/20 17:55:10;;;;;;;82.35;54.40;;;7.10;99.90;;;;;;6246792;22;20027;-75
2022/11/20 17:57:54;;;;;;;71.07;49.53;;;7.10;99.90;;;;;;6283902;22;20012;-75
2022/11/20 18:00:27;;;;;;;73.55;48.42;;;7.10;99.90;;;;;;6247123;22;20039;-76
2022/11/20 18:03:02;;;;;;;71.43;49.13;;;7.10;99.90;;;;;;6247352;22;20110;-76
2022/11/20 18:05:38;;;;;;;80.53;51.50;;;7.10;99.90;;;;;;6247078;22;20021;-78
2022/11/20 18:08:15;;;;;;;75.93;50.97;;;7.20;99.90;;;;;;6235737;23;20361;-76
2022/11/20 18:10:49;;;;;;;78.55;50.75;;;7.10;99.90;;;;;;6216542;23;20436;-76
2022/11/20 18:13:19;;;;;;;77.65;52.65;;;7.10;99.90;;;;;;6215916;23;20046;-78
2022/11/20 18:16:16;;;;;;;83.95;55.92;;;7.10;99.90;;;;;;6213908;23;20038;-75
2022/11/20 18:19:26;;;;;;;86.43;56.33;;;7.10;99.90;;;;;;6252359;23;20020;-76
2022/11/20 18:51:56;;;;;;;;;;;;;;;;;;;;;
2022/11/20 19:03:17;;;;;;;;;;;;;;;;;;;;;
2022/11/20 20:34:01;;;;;;;66.13;43.90;;;7.50;99.90;;;;;;6210016;22;20080;-80
2022/11/20 20:36:29;;;;;;;67.00;42.03;;;7.50;99.90;;;;;;6128430;23;20037;-78
2022/11/20 20:38:58;;;;;;;63.90;42.22;;;7.50;99.90;;;;;;6093210;23;20026;-76
2022/11/20 20:41:26;;;;;;;57.70;39.53;;;7.50;99.90;;;;;;6094034;23;20022;-76
2022/11/20 20:46:39;;;;;;;65.50;43.35;;;7.50;99.90;;;;;;6093737;23;20037;-76
2022/11/20 20:49:08;;;;;;;72.50;47.22;;;7.50;99.90;;;;;;6092912;23;20528;-78
2022/11/20 20:51:37;;;;;;;71.85;46.03;;;7.50;99.90;;;;;;6092792;23;20026;-77
2022/11/20 20:54:05;;;;;;;73.75;49.10;;;7.50;99.90;;;;;;6094698;23;20018;-76
2022/11/20 20:56:33;;;;;;;73.22;47.58;;;7.50;99.90;;;;;;6129106;23;20146;-78
2022/11/20 20:59:00;;;;;;;76.68;47.97;;;7.50;99.90;;;;;;6093915;23;20480;-78
2022/11/20 21:01:28;;;;;;;84.38;53.28;;;7.40;99.90;;;;;;6131109;23;20014;-76
2022/11/20 21:03:56;;;;;;;80.63;53.00;;;7.40;99.90;;;;;;6130895;23;20450;-76
2022/11/20 21:06:25;;;;;;;84.28;54.42;;;7.50;99.90;;;;;;6094613;23;20025;-76
2022/11/20 21:08:54;;;;;;;78.30;51.15;;;7.50;99.90;;;;;;6129140;23;20016;-78
2022/11/20 21:11:22;;;;;;;78.22;51.97;;;7.50;99.90;;;;;;6093103;23;20410;-77
2022/11/20 21:13:49;;;;;;;79.70;52.65;;;7.40;99.90;;;;;;6093661;23;20068;-76
2022/11/20 21:16:19;;;;;;;78.60;51.20;;;7.40;99.90;;;;;;6093782;23;20084;-78
2022/11/20 21:18:46;;;;;;;81.78;53.40;;;7.30;99.90;;;;;;6092149;23;20075;-76
2022/11/20 21:24:02;;;;;;;76.70;49.17;;;7.20;99.90;;;;;;6093681;23;20022;-76
2022/11/20 21:26:29;;;;;;;77.10;49.17;;;7.30;99.90;;;;;;6093825;23;20030;-76
2022/11/20 21:28:57;;;;;;;71.93;48.05;;;7.30;99.90;;;;;;6129263;23;20029;-78
2022/11/20 21:31:27;;;;;;;75.22;47.20;;;7.30;99.90;;;;;;6148604;23;20006;-76
2022/11/20 21:33:55;;;;;;;70.72;47.28;;;7.40;99.90;;;;;;6109486;23;20469;-76
2022/11/20 21:36:25;;;;;;;70.93;48.55;;;7.40;99.90;;;;;;6129983;23;20502;-77
2022/11/20 21:38:53;;;;;;;69.15;46.58;;;7.40;99.90;;;;;;6093012;23;20022;-76
2022/11/20 21:41:23;;;;;;;74.20;47.47;;;7.40;99.90;;;;;;6095317;23;20068;-78
2022/11/20 21:43:51;;;;;;;78.03;48.22;;;7.40;99.90;;;;;;6094108;23;20450;-77
2022/11/20 21:46:19;;;;;;;74.68;48.78;;;7.40;99.90;;;;;;6094156;23;20092;-76
2022/11/20 21:48:47;;;;;;;79.32;50.95;;;7.50;99.90;;;;;;6093140;23;20477;-77
2022/11/20 21:51:16;;;;;;;79.03;50.63;;;7.50;99.90;;;;;;6093708;23;20022;-77
2022/11/20 21:53:45;;;;;;;75.25;47.65;;;7.50;99.90;;;;;;6129791;23;20559;-77
2022/11/20 21:56:13;;;;;;;67.85;46.42;;;7.50;99.90;;;;;;6093480;23;20394;-76
2022/11/20 21:58:43;;;;;;;67.25;46.03;;;7.50;99.90;;;;;;6092961;23;20025;-78
2022/11/20 22:01:12;;;;;;;70.65;44.72;;;7.40;99.90;;;;;;6128664;23;20022;-76
2022/11/20 22:03:40;;;;;;;71.22;46.42;;;7.40;99.90;;;;;;6093905;23;20093;-75
2022/11/20 22:06:09;;;;;;;70.63;48.65;;;7.50;99.90;;;;;;6137795;23;20021;-77
2022/11/20 22:08:37;;;;;;;72.57;48.67;;;7.50;99.90;;;;;;6121523;23;20006;-76
2022/11/20 22:11:06;;;;;;;75.55;49.35;;;7.50;99.90;;;;;;6151621;23;20010;-76
2022/11/20 22:16:21;;;;;;;75.57;49.53;;;7.40;99.90;;;;;;6100673;23;20025;-76
2022/11/20 22:18:50;;;;;;;70.13;46.88;;;7.40;99.90;;;;;;6095389;23;20028;-76
2022/11/20 22:21:19;;;;;;;74.93;47.22;;;7.40;99.90;;;;;;6130443;23;20089;-75
2022/11/20 22:23:46;;;;;;;72.70;46.75;;;7.40;99.90;;;;;;6093994;23;20024;-75
2022/11/20 22:26:15;;;;;;;78.03;50.00;;;7.40;99.90;;;;;;6093094;23;20018;-76
2022/11/20 22:28:43;;;;;;;78.07;49.95;;;7.30;99.90;;;;;;6129334;23;20511;-76
2022/11/20 22:31:11;;;;;;;74.05;48.85;;;7.30;99.90;;;;;;6105103;23;20018;-77
2022/11/20 22:33:40;;;;;;;73.97;49.00;;;7.30;99.90;;;;;;6139573;23;20497;-79
2022/11/20 22:36:10;;;;;;;77.47;48.83;;;7.30;99.90;;;;;;6100108;23;20032;-76
2022/11/20 22:38:38;;;;;;;78.65;48.92;;;7.30;99.90;;;;;;6094433;23;20024;-76
2022/11/20 22:41:06;;;;;;;76.25;48.45;;;7.30;99.90;;;;;;6098082;23;20347;-77
2022/11/20 22:43:34;;;;;;;78.45;51.35;;;7.30;99.90;;;;;;6107313;23;20014;-76
2022/11/20 22:46:05;;;;;;;83.32;52.90;;;7.20;99.90;;;;;;6107382;23;20438;-76
2022/11/20 22:48:33;;;;;;;82.38;51.95;;;7.30;99.90;;;;;;6143150;23;20018;-76
2022/11/20 22:51:03;;;;;;;85.45;55.95;;;7.30;99.90;;;;;;6106174;23;20049;-77
2022/11/20 22:53:32;;;;;;;88.00;53.85;;;7.40;99.90;;;;;;6144019;23;20041;-76
2022/11/20 22:55:59;;;;;;;82.70;50.22;;;7.40;99.90;;;;;;6107016;23;20040;-77
2022/11/20 22:58:29;;;;;;;76.38;50.28;;;7.40;99.90;;;;;;6140031;23;20384;-77
2022/11/20 23:01:05;;;;;;;78.40;48.17;;;7.50;99.90;;;;;;6143159;23;20025;-76
2022/11/20 23:03:32;;;;;;;63.53;43.00;;;7.60;99.90;;;;;;6143154;23;20014;-77
2022/11/20 23:06:00;;;;;;;67.45;46.42;;;7.60;99.90;;;;;;6138758;23;20057;-77
2022/11/20 23:08:29;;;;;;;78.53;47.97;;;7.60;99.90;;;;;;6101599;23;20026;-76
2022/11/20 23:10:59;;;;;;;69.15;46.45;;;7.60;99.90;;;;;;6099217;23;20521;-76
2022/11/20 23:13:27;;;;;;;67.22;44.33;;;7.60;99.90;;;;;;6093861;23;20014;-77
2022/11/20 23:15:55;;;;;;;62.13;43.22;;;7.60;99.90;;;;;;6129551;23;20068;-76
2022/11/20 23:18:23;;;;;;;66.68;41.25;;;7.60;99.90;;;;;;6092615;23;20414;-77
2022/11/20 23:20:51;;;;;;;69.63;45.72;;;7.50;99.90;;;;;;6093367;23;20068;-76
2022/11/20 23:23:18;;;;;;;64.65;42.83;;;7.60;99.90;;;;;;6128932;23;20392;-76
2022/11/20 23:25:47;;;;;;;70.43;45.92;;;7.60;99.90;;;;;;6094196;23;20117;-77
2022/11/20 23:28:14;;;;;;;68.05;44.25;;;7.50;99.90;;;;;;6129442;23;20021;-76
2022/11/20 23:30:42;;;;;;;69.70;45.78;;;7.50;99.90;;;;;;6093695;23;20102;-80
2022/11/20 23:33:09;;;;;;;71.75;45.03;;;7.60;99.90;;;;;;6093760;23;20022;-79
2022/11/20 23:35:39;;;;;;;64.65;43.33;;;7.50;99.90;;;;;;6129615;23;20399;-77
2022/11/20 23:38:07;;;;;;;69.90;44.63;;;7.50;99.90;;;;;;6093034;23;20021;-76
2022/11/20 23:40:35;;;;;;;70.63;44.88;;;7.40;99.90;;;;;;6129060;23;20010;-77
2022/11/20 23:43:16;;;;;;;68.40;43.55;;;7.30;99.90;;;;;;6128914;23;20010;-75
2022/11/20 23:45:44;;;;;;;69.00;43.35;;;7.20;99.90;;;;;;6093399;23;20056;-75
2022/11/20 23:48:12;;;;;;;70.97;44.92;;;7.20;99.90;;;;;;6093147;23;20346;-75
2022/11/20 23:50:40;;;;;;;70.63;44.90;;;7.20;99.90;;;;;;6093538;23;20069;-75
2022/11/20 23:53:08;;;;;;;67.90;43.55;;;7.20;99.90;;;;;;6130062;23;20014;-75
2022/11/20 23:55:35;;;;;;;68.57;43.72;;;7.10;99.90;;;;;;6129294;23;20026;-76
2022/11/20 23:58:05;;;;;;;67.18;44.35;;;7.00;99.90;;;;;;6128774;23;20014;-76
